createdAt,value
2018-11-09T00:01:15.912Z,13.87
2018-11-09T00:03:43.330Z,15.50
2018-11-09T00:06:10.750Z,14.73
2018-11-09T00:08:41.880Z,15.13
2018-11-09T00:11:09.323Z,16.43
2018-11-09T00:13:36.715Z,18.40
2018-11-09T00:16:04.531Z,17.83
2018-11-09T00:18:31.956Z,15.73
2018-11-09T00:20:59.338Z,15.00
2018-11-09T00:23:26.734Z,16.57
2018-11-09T00:25:54.158Z,20.50
2018-11-09T00:28:21.584Z,16.13
2018-11-09T00:30:48.975Z,16.20
2018-11-09T00:33:16.408Z,17.67
2018-11-09T00:35:43.800Z,18.20
2018-11-09T00:38:11.216Z,16.10
2018-11-09T00:40:38.693Z,16.20
2018-11-09T00:43:06.051Z,16.60
2018-11-09T00:45:33.443Z,16.73
2018-11-09T00:48:00.864Z,15.80
2018-11-09T00:50:28.312Z,15.50
2018-11-09T00:52:55.689Z,17.23
2018-11-09T00:55:23.143Z,14.10
2018-11-09T00:57:50.563Z,19.43
2018-11-09T01:00:17.979Z,18.73
2018-11-09T01:02:45.403Z,14.23
2018-11-09T01:05:13.527Z,17.00
2018-11-09T01:07:41.295Z,17.00
2018-11-09T01:10:09.247Z,16.43
2018-11-09T01:12:37.127Z,14.63
2018-11-09T01:15:05.244Z,15.53
2018-11-09T01:17:32.658Z,16.10
2018-11-09T01:20:00.063Z,14.90
2018-11-09T01:22:27.459Z,20.60
2018-11-09T01:24:54.878Z,16.70
2018-11-09T01:27:22.275Z,17.30
2018-11-09T01:29:49.671Z,16.77
2018-11-09T01:32:17.159Z,22.03
2018-11-09T01:34:47.940Z,19.77
2018-11-09T01:37:15.339Z,21.53
2018-11-09T01:39:42.756Z,19.33
2018-11-09T01:42:10.170Z,20.00
2018-11-09T01:44:37.575Z,21.67
2018-11-09T01:47:05.347Z,21.80
2018-11-09T01:49:53.862Z,25.47
2018-11-09T01:52:25.244Z,23.53
2018-11-09T01:54:52.639Z,20.47
2018-11-09T01:57:20.083Z,23.70
2018-11-09T01:59:47.491Z,23.20
2018-11-09T02:02:14.887Z,26.97
2018-11-09T02:04:42.287Z,23.67
2018-11-09T02:07:09.695Z,28.60
2018-11-09T02:09:37.091Z,19.57
2018-11-09T02:12:04.604Z,25.40
2018-11-09T02:14:32.018Z,22.07
2018-11-09T02:16:59.429Z,22.40
2018-11-09T02:19:30.322Z,19.43
2018-11-09T02:21:57.796Z,20.00
2018-11-09T02:24:25.228Z,24.03
2018-11-09T02:26:52.672Z,20.87
2018-11-09T02:29:20.137Z,24.53
2018-11-09T02:31:47.575Z,29.33
2018-11-09T02:34:15.060Z,24.50
2018-11-09T02:36:42.487Z,23.90
2018-11-09T02:39:10.163Z,33.10
2018-11-09T02:41:37.562Z,23.17
2018-11-09T02:44:05.364Z,23.60
2018-11-09T02:46:32.759Z,26.60
2018-11-09T02:49:00.155Z,26.50
2018-11-09T02:51:27.582Z,29.40
2018-11-09T02:53:54.980Z,31.30
2018-11-09T02:56:22.389Z,26.40
2018-11-09T02:58:49.815Z,26.10
2018-11-09T03:01:17.211Z,26.60
2018-11-09T03:03:44.633Z,22.67
2018-11-09T03:06:12.081Z,24.23
2018-11-09T03:08:39.481Z,29.33
2018-11-09T03:11:06.899Z,32.03
2018-11-09T03:13:34.312Z,22.80
2018-11-09T03:16:01.747Z,28.93
2018-11-09T03:18:29.140Z,26.67
2018-11-09T03:20:56.566Z,25.93
2018-11-09T03:23:23.986Z,33.53
2018-11-09T03:25:51.403Z,27.43
2018-11-09T03:28:18.815Z,27.93
2018-11-09T03:30:46.300Z,21.40
2018-11-09T03:33:13.615Z,24.20
2018-11-09T03:35:41.043Z,28.43
2018-11-09T03:38:08.504Z,26.97
2018-11-09T03:40:35.935Z,27.13
2018-11-09T03:43:03.359Z,28.75
2018-11-09T03:45:30.754Z,26.43
2018-11-09T03:47:58.163Z,26.00
2018-11-09T03:50:25.574Z,31.20
2018-11-09T03:52:52.972Z,25.80
2018-11-09T03:55:20.411Z,23.90
2018-11-09T03:57:47.818Z,24.20
2018-11-09T04:00:15.211Z,23.23
2018-11-09T04:02:42.627Z,25.07
2018-11-09T04:05:10.055Z,25.55
2018-11-09T04:07:37.975Z,23.77
2018-11-09T04:10:06.280Z,23.73
2018-11-09T04:12:33.700Z,24.02
2018-11-09T04:15:01.111Z,20.25
2018-11-09T04:17:28.535Z,21.40
2018-11-09T04:19:55.946Z,25.00
2018-11-09T04:22:23.360Z,24.67
2018-11-09T04:24:50.759Z,23.63
2018-11-09T04:27:18.186Z,22.43
2018-11-09T04:30:48.991Z,27.40
2018-11-09T04:33:16.423Z,21.05
2018-11-09T04:35:43.828Z,22.17
2018-11-09T04:38:11.245Z,28.67
2018-11-09T04:40:38.663Z,23.07
2018-11-09T04:43:06.262Z,27.15
2018-11-09T04:45:33.734Z,20.10
2018-11-09T04:48:01.106Z,19.45
2018-11-09T04:50:28.515Z,23.40
2018-11-09T04:52:55.921Z,23.02
2018-11-09T04:55:23.342Z,25.05
2018-11-09T04:57:50.755Z,19.02
2018-11-09T05:00:18.159Z,22.27
2018-11-09T05:02:45.575Z,21.50
2018-11-09T05:05:12.995Z,23.22
2018-11-09T05:07:40.406Z,27.80
2018-11-09T05:10:08.540Z,19.85
2018-11-09T05:12:35.968Z,20.70
2018-11-09T05:15:04.268Z,25.00
2018-11-09T05:17:31.744Z,21.73
2018-11-09T05:19:59.143Z,21.68
2018-11-09T05:22:26.584Z,22.37
2018-11-09T05:24:54.076Z,23.85
2018-11-09T05:27:21.523Z,18.35
2018-11-09T05:29:48.994Z,23.47
2018-11-09T05:32:16.415Z,26.60
2018-11-09T05:34:43.847Z,20.75
2018-11-09T05:37:11.356Z,23.83
2018-11-09T05:39:38.819Z,23.57
2018-11-09T05:42:06.258Z,23.47
2018-11-09T05:44:33.695Z,22.75
2018-11-09T05:47:01.210Z,21.42
2018-11-09T05:49:28.626Z,20.97
2018-11-09T05:51:56.101Z,21.45
2018-11-09T05:54:23.535Z,22.58
2018-11-09T05:56:50.939Z,23.18
2018-11-09T05:59:18.455Z,23.92
2018-11-09T06:01:49.448Z,28.23
2018-11-09T06:04:16.885Z,32.83
2018-11-09T06:06:44.311Z,27.50
2018-11-09T06:09:12.600Z,22.50
2018-11-09T06:11:40.004Z,20.60
2018-11-09T06:14:07.628Z,25.45
2018-11-09T06:16:35.051Z,28.00
2018-11-09T06:19:04.104Z,23.57
2018-11-09T06:21:31.532Z,27.15
2018-11-09T06:23:58.943Z,25.25
2018-11-09T06:26:26.359Z,24.23
2018-11-09T06:28:53.764Z,25.27
2018-11-09T06:31:21.219Z,23.45
2018-11-09T06:33:48.624Z,27.65
2018-11-09T06:36:16.039Z,21.25
2018-11-09T06:38:43.470Z,21.82
2018-11-09T06:41:10.868Z,20.25
2018-11-09T06:43:41.991Z,25.23
2018-11-09T06:46:09.416Z,21.20
2018-11-09T06:48:36.868Z,24.40
2018-11-09T06:51:07.515Z,21.87
2018-11-09T06:53:34.921Z,24.65
2018-11-09T06:56:02.332Z,28.73
2018-11-09T06:58:29.787Z,26.12
2018-11-09T07:00:57.147Z,20.85
2018-11-09T07:03:24.571Z,23.12
2018-11-09T07:05:52.142Z,28.47
2018-11-09T07:08:19.861Z,32.15
2018-11-09T07:10:47.339Z,25.08
2018-11-09T07:13:14.755Z,19.95
2018-11-09T07:15:42.165Z,30.30
2018-11-09T07:18:13.362Z,23.92
2018-11-09T07:20:40.749Z,27.70
2018-11-09T07:23:08.192Z,25.37
2018-11-09T07:25:39.234Z,26.05
2018-11-09T07:28:06.599Z,21.65
2018-11-09T07:30:34.040Z,26.30
2018-11-09T07:33:01.459Z,26.80
2018-11-09T07:35:28.928Z,24.30
2018-11-09T07:37:56.495Z,29.75
2018-11-09T07:40:23.775Z,25.25
2018-11-09T07:42:51.226Z,25.90
2018-11-09T07:45:18.951Z,29.35
2018-11-09T07:47:46.433Z,26.93
2018-11-09T07:50:17.521Z,25.92
2018-11-09T07:52:45.443Z,34.08
2018-11-09T07:55:12.891Z,31.73
2018-11-09T07:57:40.337Z,33.90
2018-11-09T08:00:11.503Z,24.82
2018-11-09T08:02:38.966Z,29.55
2018-11-09T08:05:07.138Z,26.23
2018-11-09T08:07:34.951Z,36.40
2018-11-09T08:10:02.497Z,24.67
2018-11-09T08:12:29.883Z,32.58
2018-11-09T08:14:57.333Z,31.90
2018-11-09T08:17:24.715Z,28.73
2018-11-09T08:19:52.151Z,34.25
2018-11-09T08:22:19.599Z,30.32
2018-11-09T08:24:47.044Z,38.53
2018-11-09T08:27:14.451Z,33.95
2018-11-09T08:29:41.907Z,36.90
2018-11-09T08:32:09.317Z,33.10
2018-11-09T08:34:36.756Z,34.40
2018-11-09T08:37:05.230Z,42.00
2018-11-09T08:39:32.651Z,42.58
2018-11-09T08:42:00.071Z,47.15
2018-11-09T08:44:27.543Z,49.83
2018-11-09T08:46:54.938Z,39.40
2018-11-09T08:49:22.356Z,41.58
2018-11-09T08:51:49.787Z,41.83
2018-11-09T08:54:20.463Z,45.47
2018-11-09T08:56:47.883Z,49.93
2018-11-09T08:59:15.325Z,38.03
2018-11-09T09:01:42.755Z,38.27
2018-11-09T09:04:10.183Z,53.43
2018-11-09T09:06:37.607Z,45.90
2018-11-09T09:09:07.393Z,39.37
2018-11-09T09:11:34.783Z,39.73
2018-11-09T09:14:02.539Z,41.90
2018-11-09T09:16:30.011Z,47.73
2018-11-09T09:18:57.412Z,41.03
2018-11-09T09:21:24.843Z,39.53
2018-11-09T09:23:52.301Z,40.83
2018-11-09T09:26:19.737Z,42.17
2018-11-09T09:28:47.171Z,40.87
2018-11-09T09:31:14.621Z,41.13
2018-11-09T09:33:42.063Z,52.93
2018-11-09T09:36:09.540Z,40.90
2018-11-09T09:38:37.283Z,46.93
2018-11-09T09:41:08.073Z,45.10
2018-11-09T09:43:35.486Z,40.73
2018-11-09T09:46:03.006Z,40.30
2018-11-09T09:48:30.447Z,45.90
2018-11-09T09:50:57.868Z,40.30
2018-11-09T09:53:25.340Z,50.33
2018-11-09T09:55:52.913Z,36.50
2018-11-09T09:58:20.240Z,39.07
2018-11-09T10:00:47.643Z,43.73
2018-11-09T10:03:15.055Z,38.93
2018-11-09T10:05:42.452Z,36.50
2018-11-09T10:08:09.883Z,44.20
2018-11-09T10:10:37.289Z,43.63
2018-11-09T10:13:04.879Z,44.00
2018-11-09T10:15:33.242Z,37.60
2018-11-09T10:18:00.646Z,41.90
2018-11-09T10:20:28.074Z,35.33
2018-11-09T10:22:55.515Z,36.77
2018-11-09T10:25:22.931Z,42.40
2018-11-09T10:27:53.404Z,42.73
2018-11-09T10:30:21.306Z,45.13
2018-11-09T10:32:48.794Z,34.33
2018-11-09T10:36:19.463Z,37.17
2018-11-09T10:38:46.883Z,36.90
2018-11-09T10:41:14.307Z,36.23
2018-11-09T10:43:42.179Z,38.27
2018-11-09T10:46:09.664Z,30.67
2018-11-09T10:48:37.126Z,35.63
2018-11-09T10:51:04.565Z,36.13
2018-11-09T10:53:31.981Z,39.27
2018-11-09T10:55:59.548Z,44.80
2018-11-09T10:58:26.867Z,38.80
2018-11-09T11:01:01.671Z,42.33
2018-11-09T11:03:34.794Z,49.90
2018-11-09T11:06:02.416Z,34.33
2018-11-09T11:08:29.808Z,40.10
2018-11-09T11:10:57.231Z,34.33
2018-11-09T11:13:24.656Z,33.77
2018-11-09T11:15:52.072Z,38.67
2018-11-09T11:18:19.801Z,41.47
2018-11-09T11:20:47.187Z,33.80
2018-11-09T11:23:14.607Z,33.70
2018-11-09T11:25:42.027Z,34.67
2018-11-09T11:28:09.467Z,35.03
2018-11-09T11:30:36.920Z,35.13
2018-11-09T11:33:04.590Z,37.50
2018-11-09T11:35:31.971Z,36.97
2018-11-09T11:37:59.445Z,37.60
2018-11-09T11:40:26.821Z,35.83
2018-11-09T11:42:54.260Z,37.70
2018-11-09T11:45:21.707Z,33.00
2018-11-09T11:47:49.123Z,30.50
2018-11-09T11:50:16.777Z,31.07
2018-11-09T11:52:44.210Z,34.47
2018-11-09T11:55:12.405Z,36.03
2018-11-09T11:57:39.895Z,33.63
2018-11-09T12:00:09.755Z,30.57
2018-11-09T12:02:37.181Z,36.43
2018-11-09T12:05:04.874Z,35.63
2018-11-09T12:07:32.304Z,41.10
2018-11-09T12:09:59.739Z,43.90
2018-11-09T12:12:27.662Z,34.07
2018-11-09T12:14:54.875Z,40.43
2018-11-09T12:17:22.295Z,31.80
2018-11-09T12:19:49.837Z,33.87
2018-11-09T12:22:17.155Z,34.30
2018-11-09T12:24:44.560Z,35.70
2018-11-09T12:27:12.001Z,34.37
2018-11-09T12:29:39.411Z,38.23
2018-11-09T12:32:06.694Z,37.10
2018-11-09T12:34:34.124Z,29.17
2018-11-09T12:37:01.591Z,35.50
2018-11-09T12:39:29.007Z,28.90
2018-11-09T12:41:59.922Z,36.30
2018-11-09T12:44:27.295Z,33.57
2018-11-09T12:46:54.725Z,32.87
2018-11-09T12:49:22.205Z,31.40
2018-11-09T12:51:49.630Z,34.97
2018-11-09T12:54:17.035Z,31.90
2018-11-09T12:56:44.487Z,38.47
2018-11-09T12:59:11.920Z,31.50
2018-11-09T13:01:39.439Z,32.50
2018-11-09T13:04:06.771Z,37.27
2018-11-09T13:06:34.188Z,30.43
2018-11-09T13:09:01.583Z,33.03
2018-11-09T13:11:29.011Z,33.43
2018-11-09T13:13:57.425Z,31.10
2018-11-09T13:16:25.050Z,32.00
2018-11-09T13:18:52.260Z,38.47
2018-11-09T13:21:19.836Z,34.13
2018-11-09T13:23:47.196Z,30.90
2018-11-09T13:26:14.641Z,31.33
2018-11-09T13:28:42.056Z,29.13
2018-11-09T13:31:10.511Z,33.20
2018-11-09T13:33:37.924Z,31.10
2018-11-09T13:36:05.503Z,32.70
2018-11-09T13:38:33.479Z,27.10
2018-11-09T13:41:01.499Z,29.33
2018-11-09T13:43:28.979Z,33.87
2018-11-09T13:45:56.404Z,29.80
2018-11-09T13:48:23.803Z,29.97
2018-11-09T13:50:51.196Z,24.57
2018-11-09T13:53:18.632Z,33.87
2018-11-09T13:55:46.035Z,31.90
2018-11-09T13:58:14.494Z,32.60
2018-11-09T14:00:41.938Z,26.57
2018-11-09T14:03:09.339Z,30.43
2018-11-09T14:05:36.771Z,35.83
2018-11-09T14:08:04.248Z,36.37
2018-11-09T14:10:31.651Z,34.60
2018-11-09T14:12:59.079Z,26.97
2018-11-09T14:15:26.479Z,31.13
2018-11-09T14:17:53.899Z,35.87
2018-11-09T14:20:21.377Z,31.20
2018-11-09T14:22:48.723Z,31.07
2018-11-09T14:25:16.560Z,30.93
2018-11-09T14:27:44.826Z,31.47
2018-11-09T14:30:14.798Z,30.43
2018-11-09T14:32:42.605Z,33.73
2018-11-09T14:35:10.074Z,31.57
2018-11-09T14:37:37.476Z,33.50
2018-11-09T14:40:07.286Z,37.87
2018-11-09T14:42:34.683Z,33.20
2018-11-09T14:45:02.115Z,26.83
2018-11-09T14:47:29.507Z,29.97
2018-11-09T14:49:56.912Z,29.77
2018-11-09T14:52:24.352Z,31.13
2018-11-09T14:54:54.791Z,33.10
2018-11-09T14:57:22.200Z,26.50
2018-11-09T14:59:49.607Z,27.70
2018-11-09T15:02:17.011Z,29.80
2018-11-09T15:04:44.437Z,29.93
2018-11-09T15:07:11.853Z,24.43
2018-11-09T15:09:39.324Z,26.00
2018-11-09T15:12:06.867Z,27.67
2018-11-09T15:14:34.207Z,24.10
2018-11-09T15:17:01.647Z,24.37
2018-11-09T15:19:29.080Z,23.20
2018-11-09T15:21:56.500Z,23.10
2018-11-09T15:24:23.904Z,27.87
2018-11-09T15:26:51.415Z,28.67
2018-11-09T15:29:18.848Z,26.20
2018-11-09T15:31:46.271Z,21.13
2018-11-09T15:34:13.695Z,26.00
2018-11-09T15:36:41.150Z,24.70
2018-11-09T15:39:14.077Z,22.23
2018-11-09T15:41:42.058Z,22.07
2018-11-09T15:44:09.512Z,31.93
2018-11-09T15:46:37.185Z,24.57
2018-11-09T15:49:04.728Z,23.40
2018-11-09T15:51:32.263Z,24.13
2018-11-09T15:53:59.688Z,27.00
2018-11-09T15:56:27.112Z,24.23
2018-11-09T15:58:54.523Z,27.60
2018-11-09T16:01:21.935Z,22.43
2018-11-09T16:03:49.452Z,24.97
2018-11-09T16:06:16.891Z,23.07
2018-11-09T16:08:44.559Z,22.47
2018-11-09T16:11:11.772Z,21.40
2018-11-09T16:13:39.211Z,25.80
2018-11-09T16:16:06.774Z,22.00
2018-11-09T16:18:37.383Z,23.73
2018-11-09T16:21:06.128Z,24.60
2018-11-09T16:23:33.557Z,26.93
2018-11-09T16:26:00.982Z,23.83
2018-11-09T16:28:32.112Z,26.97
2018-11-09T16:30:59.595Z,22.70
2018-11-09T16:33:27.031Z,29.70
2018-11-09T16:35:54.499Z,24.30
2018-11-09T16:38:21.914Z,25.77
2018-11-09T16:40:49.335Z,31.20
2018-11-09T16:43:16.776Z,22.83
2018-11-09T16:45:44.204Z,28.03
2018-11-09T16:48:11.635Z,24.33
2018-11-09T16:50:39.067Z,28.20
2018-11-09T16:53:06.638Z,29.40
2018-11-09T16:55:34.120Z,23.77
2018-11-09T16:58:01.564Z,30.13
2018-11-09T17:00:32.409Z,35.25
2018-11-09T17:02:59.800Z,35.57
2018-11-09T17:05:27.265Z,82.00
2018-11-09T17:07:54.672Z,53.50
2018-11-09T17:10:24.399Z,40.33
2018-11-09T17:12:51.818Z,34.65
2018-11-09T17:15:19.255Z,39.73
2018-11-09T17:17:46.687Z,33.10
2018-11-09T17:20:15.568Z,26.10
2018-11-09T17:22:44.036Z,33.20
2018-11-09T17:25:12.008Z,37.10
2018-11-09T17:27:39.549Z,28.90
2018-11-09T17:30:13.563Z,27.87
2018-11-09T17:32:41.036Z,31.20
2018-11-09T17:35:09.439Z,29.80
2018-11-09T17:37:37.178Z,30.97
2018-11-09T17:40:10.464Z,30.50
2018-11-09T17:42:37.911Z,26.90
2018-11-09T17:45:07.672Z,33.57
2018-11-09T17:47:35.155Z,31.63
2018-11-09T17:50:03.071Z,37.20
2018-11-09T17:52:30.519Z,38.57
2018-11-09T17:54:57.915Z,42.67
2018-11-09T17:57:25.411Z,32.10
2018-11-09T17:59:52.864Z,29.10
2018-11-09T18:02:20.283Z,30.87
2018-11-09T18:04:47.733Z,36.40
2018-11-09T18:07:15.149Z,32.40
2018-11-09T18:09:42.638Z,36.50
2018-11-09T18:12:10.047Z,33.80
2018-11-09T18:14:37.487Z,32.13
2018-11-09T18:17:08.530Z,43.17
2018-11-09T18:19:38.939Z,35.63
2018-11-09T18:22:06.386Z,32.33
2018-11-09T18:24:33.795Z,35.40
2018-11-09T18:27:17.522Z,38.20
2018-11-09T18:29:44.951Z,43.00
2018-11-09T18:32:12.368Z,40.40
2018-11-09T18:34:39.792Z,36.43
2018-11-09T18:37:07.224Z,40.60
2018-11-09T18:39:34.646Z,37.50
2018-11-09T18:42:02.181Z,36.77
2018-11-09T18:44:29.507Z,38.87
2018-11-09T18:46:57.995Z,30.13
2018-11-09T18:49:25.511Z,35.00
2018-11-09T18:51:52.996Z,34.50
2018-11-09T18:54:20.419Z,35.70
2018-11-09T18:56:47.835Z,44.40
2018-11-09T18:59:15.263Z,37.27
2018-11-09T19:01:42.736Z,31.73
2018-11-09T19:04:10.143Z,28.97
2018-11-09T19:06:37.600Z,32.73
2018-11-09T19:09:06.108Z,29.40
2018-11-09T19:11:33.560Z,38.60
2018-11-09T19:14:01.187Z,41.57
2018-11-09T19:16:28.964Z,43.97
2018-11-09T19:18:56.703Z,35.47
2018-11-09T19:21:24.440Z,34.73
2018-11-09T19:23:52.101Z,40.47
2018-11-09T19:26:19.756Z,44.37
2018-11-09T19:28:47.625Z,31.23
2018-11-09T19:31:15.380Z,35.13
2018-11-09T19:33:43.081Z,36.00
2018-11-09T19:36:11.844Z,42.47
2018-11-09T19:38:39.712Z,44.10
2018-11-09T19:41:07.423Z,36.73
2018-11-09T19:43:35.219Z,37.63
2018-11-09T19:46:03.013Z,46.10
2018-11-09T19:48:30.745Z,34.10
2018-11-09T19:50:58.508Z,45.93
2018-11-09T19:53:26.259Z,39.83
2018-11-09T19:55:54.242Z,43.70
2018-11-09T19:58:21.957Z,38.85
2018-11-09T20:00:50.644Z,34.43
2018-11-09T20:03:18.252Z,45.90
2018-11-09T20:05:46.129Z,35.77
2018-11-09T20:08:13.837Z,38.67
2018-11-09T20:10:41.601Z,41.23
2018-11-09T20:13:09.116Z,38.40
2018-11-09T20:15:36.567Z,34.87
2018-11-09T20:18:04.202Z,39.80
2018-11-09T20:20:31.892Z,36.80
2018-11-09T20:22:59.385Z,41.47
2018-11-09T20:25:27.133Z,35.78
2018-11-09T20:27:54.703Z,38.13
2018-11-09T20:30:22.172Z,42.62
2018-11-09T20:32:50.048Z,34.67
2018-11-09T20:35:17.500Z,37.13
2018-11-09T20:37:45.089Z,37.73
2018-11-09T20:40:15.096Z,48.70
2018-11-09T20:42:42.779Z,34.38
2018-11-09T20:45:11.717Z,35.40
2018-11-09T20:47:39.274Z,37.88
2018-11-09T20:50:13.292Z,38.33
2018-11-09T20:52:41.207Z,42.08
2018-11-09T20:55:08.772Z,39.23
2018-11-09T20:57:36.945Z,39.65
2018-11-09T21:00:06.804Z,35.03
2018-11-09T21:02:34.227Z,41.30
2018-11-09T21:05:01.667Z,47.73
2018-11-09T21:07:29.107Z,38.42
2018-11-09T21:09:56.652Z,38.20
2018-11-09T21:12:24.093Z,48.17
2018-11-09T21:14:51.545Z,52.17
2018-11-09T21:17:19.078Z,44.42
2018-11-09T21:19:46.659Z,51.68
2018-11-09T21:22:15.120Z,41.28
2018-11-09T21:24:42.867Z,46.90
2018-11-09T21:27:10.651Z,47.13
2018-11-09T21:29:38.072Z,50.38
2018-11-09T21:32:05.736Z,37.67
2018-11-09T21:34:33.303Z,45.17
2018-11-09T21:37:01.213Z,35.38
2018-11-09T21:39:28.663Z,44.53
2018-11-09T21:41:56.180Z,43.28
2018-11-09T21:44:23.583Z,35.48
2018-11-09T21:46:51.423Z,41.48
2018-11-09T21:49:18.913Z,41.18
2018-11-09T21:51:46.287Z,39.18
2018-11-09T21:54:13.887Z,33.98
2018-11-09T21:56:41.522Z,38.80
2018-11-09T21:59:08.932Z,43.20
2018-11-09T22:01:36.551Z,40.52
2018-11-09T22:05:07.231Z,46.45
2018-11-09T22:07:34.855Z,36.85
2018-11-09T22:10:02.428Z,49.77
2018-11-09T22:12:29.875Z,48.83
2018-11-09T22:14:57.315Z,45.48
2018-11-09T22:17:24.864Z,41.05
2018-11-09T22:19:52.291Z,40.83
2018-11-09T22:22:19.750Z,52.45
2018-11-09T22:24:47.460Z,43.65
2018-11-09T22:27:14.868Z,41.48
2018-11-09T22:29:42.464Z,40.80
2018-11-09T22:32:09.879Z,43.87
2018-11-09T22:34:37.311Z,43.35
2018-11-09T22:37:04.863Z,44.93
2018-11-09T22:39:32.295Z,49.03
2018-11-09T22:41:59.732Z,50.63
2018-11-09T22:44:27.183Z,49.80
2018-11-09T22:46:54.623Z,55.35
2018-11-09T22:49:22.039Z,49.45
2018-11-09T22:51:49.493Z,40.63
2018-11-09T22:54:16.907Z,41.15
2018-11-09T22:56:44.356Z,34.00
2018-11-09T22:59:11.814Z,35.45
2018-11-09T23:01:39.250Z,34.80
2018-11-09T23:04:06.686Z,32.95
2018-11-09T23:06:34.149Z,41.37
2018-11-09T23:09:01.632Z,33.78
2018-11-09T23:11:29.095Z,39.85
2018-11-09T23:13:56.495Z,45.33
2018-11-09T23:16:23.895Z,34.35
2018-11-09T23:18:51.323Z,37.35
2018-11-09T23:21:18.731Z,42.27
2018-11-09T23:23:46.111Z,46.75
2018-11-09T23:26:13.511Z,38.63
2018-11-09T23:28:40.895Z,43.92
2018-11-09T23:31:08.359Z,42.58
2018-11-09T23:33:35.791Z,41.25
2018-11-09T23:36:04.719Z,44.73
2018-11-09T23:38:32.112Z,38.60
2018-11-09T23:40:59.514Z,38.42
2018-11-09T23:43:26.924Z,43.73
2018-11-09T23:45:54.308Z,35.28
2018-11-09T23:48:21.711Z,38.28
2018-11-09T23:50:49.118Z,35.08
2018-11-09T23:53:16.526Z,38.53
2018-11-09T23:55:43.929Z,40.85
2018-11-09T23:58:11.402Z,40.60
